sensor_id;sensor_type;location;lat;lon;timestamp;P1;durP1;ratioP1;P2;durP2;ratioP2
572;SDS011;271;51.114;13.780;2024-02-23T00:00:44;15.30;;;1.73;;
572;SDS011;271;51.114;13.780;2024-02-23T00:03:33;16.10;;;1.70;;
572;SDS011;271;51.114;13.780;2024-02-23T00:06:23;15.30;;;1.20;;
572;SDS011;271;51.114;13.780;2024-02-23T00:09:13;15.80;;;1.53;;
572;SDS011;271;51.114;13.780;2024-02-23T00:12:01;15.60;;;1.93;;
572;SDS011;271;51.114;13.780;2024-02-23T00:14:49;15.17;;;1.40;;
572;SDS011;271;51.114;13.780;2024-02-23T00:17:37;15.03;;;1.60;;
572;SDS011;271;51.114;13.780;2024-02-23T00:20:25;15.17;;;1.70;;
572;SDS011;271;51.114;13.780;2024-02-23T00:23:14;15.07;;;1.50;;
572;SDS011;271;51.114;13.780;2024-02-23T00:26:02;15.07;;;1.53;;
572;SDS011;271;51.114;13.780;2024-02-23T00:28:50;15.30;;;1.50;;
572;SDS011;271;51.114;13.780;2024-02-23T00:31:38;15.30;;;1.70;;
572;SDS011;271;51.114;13.780;2024-02-23T00:34:26;15.30;;;1.70;;
572;SDS011;271;51.114;13.780;2024-02-23T00:37:16;15.07;;;1.47;;
572;SDS011;271;51.114;13.780;2024-02-23T00:40:05;15.30;;;1.50;;
572;SDS011;271;51.114;13.780;2024-02-23T00:42:55;14.90;;;1.70;;
572;SDS011;271;51.114;13.780;2024-02-23T00:45:42;16.37;;;1.90;;
572;SDS011;271;51.114;13.780;2024-02-23T00:48:30;15.40;;;1.77;;
572;SDS011;271;51.114;13.780;2024-02-23T00:51:18;15.57;;;1.73;;
572;SDS011;271;51.114;13.780;2024-02-23T00:54:05;15.03;;;1.87;;
572;SDS011;271;51.114;13.780;2024-02-23T00:56:55;15.60;;;2.13;;
572;SDS011;271;51.114;13.780;2024-02-23T00:59:43;15.47;;;1.87;;
572;SDS011;271;51.114;13.780;2024-02-23T01:02:31;15.07;;;1.73;;
572;SDS011;271;51.114;13.780;2024-02-23T01:05:19;15.70;;;1.70;;
572;SDS011;271;51.114;13.780;2024-02-23T01:08:07;15.00;;;1.60;;
572;SDS011;271;51.114;13.780;2024-02-23T01:10:55;14.93;;;1.40;;
572;SDS011;271;51.114;13.780;2024-02-23T01:13:44;15.03;;;1.40;;
572;SDS011;271;51.114;13.780;2024-02-23T01:16:31;14.83;;;1.57;;
572;SDS011;271;51.114;13.780;2024-02-23T01:19:19;14.57;;;1.20;;
572;SDS011;271;51.114;13.780;2024-02-23T01:22:07;14.47;;;1.00;;
572;SDS011;271;51.114;13.780;2024-02-23T01:24:55;15.60;;;0.93;;
572;SDS011;271;51.114;13.780;2024-02-23T01:27:43;14.40;;;0.90;;
572;SDS011;271;51.114;13.780;2024-02-23T01:30:32;14.80;;;0.90;;
572;SDS011;271;51.114;13.780;2024-02-23T01:33:20;14.37;;;1.10;;
572;SDS011;271;51.114;13.780;2024-02-23T01:36:08;14.20;;;0.80;;
572;SDS011;271;51.114;13.780;2024-02-23T01:38:56;14.27;;;0.80;;
572;SDS011;271;51.114;13.780;2024-02-23T01:41:43;14.27;;;0.90;;
572;SDS011;271;51.114;13.780;2024-02-23T01:44:31;14.37;;;0.90;;
572;SDS011;271;51.114;13.780;2024-02-23T01:47:20;14.27;;;0.77;;
572;SDS011;271;51.114;13.780;2024-02-23T01:50:08;14.20;;;0.90;;
572;SDS011;271;51.114;13.780;2024-02-23T01:53:00;13.97;;;0.80;;
572;SDS011;271;51.114;13.780;2024-02-23T01:55:48;13.93;;;0.73;;
572;SDS011;271;51.114;13.780;2024-02-23T01:58:36;14.00;;;0.80;;
572;SDS011;271;51.114;13.780;2024-02-23T02:01:25;13.93;;;0.80;;
572;SDS011;271;51.114;13.780;2024-02-23T02:04:14;13.93;;;0.80;;
572;SDS011;271;51.114;13.780;2024-02-23T02:07:02;14.37;;;1.00;;
572;SDS011;271;51.114;13.780;2024-02-23T02:09:50;17.83;;;0.97;;
572;SDS011;271;51.114;13.780;2024-02-23T02:12:37;15.20;;;1.20;;
572;SDS011;271;51.114;13.780;2024-02-23T02:15:25;14.23;;;1.00;;
572;SDS011;271;51.114;13.780;2024-02-23T02:18:13;14.17;;;0.80;;
572;SDS011;271;51.114;13.780;2024-02-23T02:21:02;14.30;;;0.90;;
572;SDS011;271;51.114;13.780;2024-02-23T02:23:50;14.00;;;0.90;;
572;SDS011;271;51.114;13.780;2024-02-23T02:26:37;14.03;;;0.90;;
572;SDS011;271;51.114;13.780;2024-02-23T02:29:25;14.10;;;0.90;;
572;SDS011;271;51.114;13.780;2024-02-23T02:32:13;14.13;;;0.90;;
572;SDS011;271;51.114;13.780;2024-02-23T02:35:00;15.93;;;1.30;;
572;SDS011;271;51.114;13.780;2024-02-23T02:37:50;13.90;;;0.73;;
572;SDS011;271;51.114;13.780;2024-02-23T02:40:37;14.43;;;1.00;;
572;SDS011;271;51.114;13.780;2024-02-23T02:43:25;14.30;;;0.90;;
572;SDS011;271;51.114;13.780;2024-02-23T02:46:13;14.40;;;0.80;;
572;SDS011;271;51.114;13.780;2024-02-23T02:49:01;14.07;;;0.90;;
572;SDS011;271;51.114;13.780;2024-02-23T02:51:48;14.13;;;0.80;;
572;SDS011;271;51.114;13.780;2024-02-23T02:54:38;13.83;;;0.70;;
572;SDS011;271;51.114;13.780;2024-02-23T02:57:25;14.10;;;0.80;;
572;SDS011;271;51.114;13.780;2024-02-23T03:00:13;14.50;;;0.80;;
572;SDS011;271;51.114;13.780;2024-02-23T03:03:01;14.00;;;0.83;;
572;SDS011;271;51.114;13.780;2024-02-23T03:05:48;14.13;;;0.80;;
572;SDS011;271;51.114;13.780;2024-02-23T03:08:36;14.10;;;0.80;;
572;SDS011;271;51.114;13.780;2024-02-23T03:11:25;14.23;;;0.93;;
572;SDS011;271;51.114;13.780;2024-02-23T03:14:13;14.20;;;0.77;;
572;SDS011;271;51.114;13.780;2024-02-23T03:17:03;16.13;;;0.80;;
572;SDS011;271;51.114;13.780;2024-02-23T03:19:51;15.63;;;1.03;;
572;SDS011;271;51.114;13.780;2024-02-23T03:22:38;13.97;;;0.80;;
572;SDS011;271;51.114;13.780;2024-02-23T03:25:26;14.90;;;0.90;;
572;SDS011;271;51.114;13.780;2024-02-23T03:28:15;15.27;;;0.90;;
572;SDS011;271;51.114;13.780;2024-02-23T03:31:03;14.03;;;0.80;;
572;SDS011;271;51.114;13.780;2024-02-23T03:33:50;14.73;;;0.90;;
572;SDS011;271;51.114;13.780;2024-02-23T03:36:38;15.00;;;0.80;;
572;SDS011;271;51.114;13.780;2024-02-23T03:39:26;14.13;;;0.90;;
572;SDS011;271;51.114;13.780;2024-02-23T03:42:14;14.27;;;0.80;;
572;SDS011;271;51.114;13.780;2024-02-23T03:45:03;14.93;;;0.80;;
572;SDS011;271;51.114;13.780;2024-02-23T03:47:52;14.07;;;0.77;;
572;SDS011;271;51.114;13.780;2024-02-23T03:50:39;14.67;;;0.83;;
572;SDS011;271;51.114;13.780;2024-02-23T03:53:27;15.10;;;0.90;;
572;SDS011;271;51.114;13.780;2024-02-23T03:56:15;14.10;;;0.70;;
572;SDS011;271;51.114;13.780;2024-02-23T03:59:02;17.63;;;1.00;;
572;SDS011;271;51.114;13.780;2024-02-23T04:01:51;14.07;;;0.70;;
572;SDS011;271;51.114;13.780;2024-02-23T04:04:39;14.13;;;0.77;;
572;SDS011;271;51.114;13.780;2024-02-23T04:07:27;14.17;;;0.70;;
572;SDS011;271;51.114;13.780;2024-02-23T04:10:14;15.00;;;0.87;;
572;SDS011;271;51.114;13.780;2024-02-23T04:13:05;15.60;;;1.20;;
572;SDS011;271;51.114;13.780;2024-02-23T04:15:52;14.17;;;0.70;;
572;SDS011;271;51.114;13.780;2024-02-23T04:18:41;14.43;;;0.80;;
572;SDS011;271;51.114;13.780;2024-02-23T04:21:29;13.97;;;0.70;;
572;SDS011;271;51.114;13.780;2024-02-23T04:24:17;14.17;;;0.70;;
572;SDS011;271;51.114;13.780;2024-02-23T04:27:04;14.20;;;0.80;;
572;SDS011;271;51.114;13.780;2024-02-23T04:29:52;14.03;;;0.77;;
572;SDS011;271;51.114;13.780;2024-02-23T04:32:40;14.20;;;0.70;;
572;SDS011;271;51.114;13.780;2024-02-23T04:35:29;14.83;;;0.80;;
572;SDS011;271;51.114;13.780;2024-02-23T04:38:17;14.50;;;0.97;;
572;SDS011;271;51.114;13.780;2024-02-23T04:41:04;14.23;;;0.90;;
572;SDS011;271;51.114;13.780;2024-02-23T04:43:53;14.50;;;0.87;;
572;SDS011;271;51.114;13.780;2024-02-23T04:46:45;14.63;;;0.90;;
572;SDS011;271;51.114;13.780;2024-02-23T04:49:34;15.13;;;0.80;;
572;SDS011;271;51.114;13.780;2024-02-23T04:52:23;15.50;;;1.00;;
572;SDS011;271;51.114;13.780;2024-02-23T04:55:10;13.97;;;0.70;;
572;SDS011;271;51.114;13.780;2024-02-23T04:57:59;14.90;;;0.80;;
572;SDS011;271;51.114;13.780;2024-02-23T05:00:46;14.40;;;0.80;;
572;SDS011;271;51.114;13.780;2024-02-23T05:03:34;14.20;;;0.90;;
572;SDS011;271;51.114;13.780;2024-02-23T05:06:22;13.93;;;0.70;;
572;SDS011;271;51.114;13.780;2024-02-23T05:09:11;14.07;;;0.70;;
572;SDS011;271;51.114;13.780;2024-02-23T05:11:59;14.90;;;0.70;;
572;SDS011;271;51.114;13.780;2024-02-23T05:14:47;14.37;;;0.80;;
572;SDS011;271;51.114;13.780;2024-02-23T05:17:34;14.17;;;0.70;;
572;SDS011;271;51.114;13.780;2024-02-23T05:20:22;14.33;;;0.90;;
572;SDS011;271;51.114;13.780;2024-02-23T05:23:10;14.30;;;0.90;;
572;SDS011;271;51.114;13.780;2024-02-23T05:25:59;14.47;;;1.10;;
572;SDS011;271;51.114;13.780;2024-02-23T05:28:46;14.40;;;0.80;;
572;SDS011;271;51.114;13.780;2024-02-23T05:31:44;14.37;;;0.70;;
572;SDS011;271;51.114;13.780;2024-02-23T05:34:33;15.63;;;1.03;;
572;SDS011;271;51.114;13.780;2024-02-23T05:37:21;14.90;;;0.90;;
572;SDS011;271;51.114;13.780;2024-02-23T05:40:10;15.70;;;0.87;;
572;SDS011;271;51.114;13.780;2024-02-23T05:42:59;15.23;;;1.17;;
572;SDS011;271;51.114;13.780;2024-02-23T05:45:47;17.37;;;0.90;;
572;SDS011;271;51.114;13.780;2024-02-23T05:48:35;14.57;;;0.90;;
572;SDS011;271;51.114;13.780;2024-02-23T05:51:23;15.60;;;0.90;;
572;SDS011;271;51.114;13.780;2024-02-23T05:54:10;14.90;;;1.00;;
572;SDS011;271;51.114;13.780;2024-02-23T05:56:58;14.67;;;0.97;;
572;SDS011;271;51.114;13.780;2024-02-23T05:59:48;14.27;;;0.80;;
572;SDS011;271;51.114;13.780;2024-02-23T06:02:35;14.98;;;0.90;;
572;SDS011;271;51.114;13.780;2024-02-23T06:05:23;14.40;;;0.80;;
572;SDS011;271;51.114;13.780;2024-02-23T06:08:11;14.43;;;1.00;;
572;SDS011;271;51.114;13.780;2024-02-23T06:10:59;15.20;;;1.07;;
572;SDS011;271;51.114;13.780;2024-02-23T06:13:47;15.93;;;1.00;;
572;SDS011;271;51.114;13.780;2024-02-23T06:16:36;14.50;;;1.00;;
572;SDS011;271;51.114;13.780;2024-02-23T06:19:24;14.43;;;1.00;;
572;SDS011;271;51.114;13.780;2024-02-23T06:22:11;14.15;;;0.88;;
572;SDS011;271;51.114;13.780;2024-02-23T06:25:01;14.03;;;0.80;;
572;SDS011;271;51.114;13.780;2024-02-23T06:27:49;14.43;;;0.90;;
572;SDS011;271;51.114;13.780;2024-02-23T06:30:37;14.60;;;1.00;;
572;SDS011;271;51.114;13.780;2024-02-23T06:33:26;14.60;;;0.90;;
572;SDS011;271;51.114;13.780;2024-02-23T06:36:13;14.57;;;0.80;;
572;SDS011;271;51.114;13.780;2024-02-23T06:39:02;14.43;;;0.90;;
572;SDS011;271;51.114;13.780;2024-02-23T06:41:50;14.60;;;0.90;;
572;SDS011;271;51.114;13.780;2024-02-23T06:44:38;15.53;;;1.00;;
572;SDS011;271;51.114;13.780;2024-02-23T06:47:25;16.08;;;0.90;;
572;SDS011;271;51.114;13.780;2024-02-23T06:50:14;15.97;;;1.10;;
572;SDS011;271;51.114;13.780;2024-02-23T06:53:02;14.90;;;0.90;;
572;SDS011;271;51.114;13.780;2024-02-23T06:55:52;15.30;;;0.90;;
572;SDS011;271;51.114;13.780;2024-02-23T06:58:40;15.53;;;0.90;;
572;SDS011;271;51.114;13.780;2024-02-23T07:01:27;15.80;;;1.00;;
572;SDS011;271;51.114;13.780;2024-02-23T07:04:16;14.80;;;0.90;;
572;SDS011;271;51.114;13.780;2024-02-23T07:07:05;14.87;;;0.90;;
572;SDS011;271;51.114;13.780;2024-02-23T07:09:54;14.23;;;1.00;;
572;SDS011;271;51.114;13.780;2024-02-23T07:12:41;14.15;;;0.98;;
572;SDS011;271;51.114;13.780;2024-02-23T07:15:30;16.03;;;1.10;;
572;SDS011;271;51.114;13.780;2024-02-23T07:18:18;14.50;;;0.90;;
572;SDS011;271;51.114;13.780;2024-02-23T07:21:06;14.43;;;0.90;;
572;SDS011;271;51.114;13.780;2024-02-23T07:23:55;14.13;;;1.00;;
572;SDS011;271;51.114;13.780;2024-02-23T07:26:42;14.33;;;1.03;;
572;SDS011;271;51.114;13.780;2024-02-23T07:29:30;14.33;;;0.80;;
572;SDS011;271;51.114;13.780;2024-02-23T07:32:18;14.83;;;1.03;;
572;SDS011;271;51.114;13.780;2024-02-23T07:35:06;14.07;;;0.90;;
572;SDS011;271;51.114;13.780;2024-02-23T07:37:55;14.63;;;0.80;;
572;SDS011;271;51.114;13.780;2024-02-23T07:40:44;15.50;;;0.90;;
572;SDS011;271;51.114;13.780;2024-02-23T07:43:31;14.90;;;1.13;;
572;SDS011;271;51.114;13.780;2024-02-23T07:46:19;14.47;;;0.97;;
572;SDS011;271;51.114;13.780;2024-02-23T07:49:08;15.97;;;1.47;;
572;SDS011;271;51.114;13.780;2024-02-23T07:51:56;15.30;;;1.10;;
572;SDS011;271;51.114;13.780;2024-02-23T07:54:44;15.50;;;1.20;;
572;SDS011;271;51.114;13.780;2024-02-23T07:57:33;16.80;;;1.33;;
572;SDS011;271;51.114;13.780;2024-02-23T08:00:21;15.17;;;1.30;;
572;SDS011;271;51.114;13.780;2024-02-23T08:03:09;16.40;;;1.23;;
572;SDS011;271;51.114;13.780;2024-02-23T08:05:56;14.53;;;1.07;;
572;SDS011;271;51.114;13.780;2024-02-23T08:08:44;14.77;;;0.90;;
572;SDS011;271;51.114;13.780;2024-02-23T08:11:32;14.60;;;1.10;;
572;SDS011;271;51.114;13.780;2024-02-23T08:14:21;14.37;;;1.00;;
572;SDS011;271;51.114;13.780;2024-02-23T08:17:10;15.13;;;0.93;;
572;SDS011;271;51.114;13.780;2024-02-23T08:19:58;16.57;;;1.30;;
572;SDS011;271;51.114;13.780;2024-02-23T08:22:45;15.40;;;1.20;;
572;SDS011;271;51.114;13.780;2024-02-23T08:25:33;17.73;;;1.50;;
572;SDS011;271;51.114;13.780;2024-02-23T08:28:21;14.80;;;1.07;;
572;SDS011;271;51.114;13.780;2024-02-23T08:31:10;15.97;;;1.30;;
572;SDS011;271;51.114;13.780;2024-02-23T08:33:57;16.03;;;1.30;;
572;SDS011;271;51.114;13.780;2024-02-23T08:36:45;16.23;;;1.10;;
572;SDS011;271;51.114;13.780;2024-02-23T08:39:33;16.80;;;1.57;;
572;SDS011;271;51.114;13.780;2024-02-23T08:42:22;16.10;;;1.40;;
572;SDS011;271;51.114;13.780;2024-02-23T08:45:10;15.40;;;1.13;;
572;SDS011;271;51.114;13.780;2024-02-23T08:48:00;15.23;;;1.60;;
572;SDS011;271;51.114;13.780;2024-02-23T08:50:49;14.50;;;1.10;;
572;SDS011;271;51.114;13.780;2024-02-23T08:53:36;14.67;;;1.00;;
572;SDS011;271;51.114;13.780;2024-02-23T08:56:24;15.35;;;1.02;;
572;SDS011;271;51.114;13.780;2024-02-23T08:59:12;15.70;;;1.20;;
572;SDS011;271;51.114;13.780;2024-02-23T09:01:59;14.23;;;0.80;;
572;SDS011;271;51.114;13.780;2024-02-23T09:04:48;16.40;;;0.80;;
572;SDS011;271;51.114;13.780;2024-02-23T09:07:36;14.47;;;0.97;;
572;SDS011;271;51.114;13.780;2024-02-23T09:10:24;15.40;;;1.17;;
572;SDS011;271;51.114;13.780;2024-02-23T09:13:11;15.13;;;1.10;;
572;SDS011;271;51.114;13.780;2024-02-23T09:15:59;16.13;;;1.10;;
572;SDS011;271;51.114;13.780;2024-02-23T09:18:47;14.70;;;1.03;;
572;SDS011;271;51.114;13.780;2024-02-23T09:21:36;15.90;;;0.97;;
572;SDS011;271;51.114;13.780;2024-02-23T09:24:24;14.90;;;1.10;;
572;SDS011;271;51.114;13.780;2024-02-23T09:27:11;15.10;;;1.20;;
572;SDS011;271;51.114;13.780;2024-02-23T09:29:59;14.47;;;0.90;;
572;SDS011;271;51.114;13.780;2024-02-23T09:32:47;15.50;;;1.53;;
572;SDS011;271;51.114;13.780;2024-02-23T09:35:35;14.90;;;0.97;;
572;SDS011;271;51.114;13.780;2024-02-23T09:38:24;14.50;;;0.90;;
572;SDS011;271;51.114;13.780;2024-02-23T09:41:15;14.07;;;0.90;;
572;SDS011;271;51.114;13.780;2024-02-23T09:44:07;14.17;;;0.90;;
572;SDS011;271;51.114;13.780;2024-02-23T09:46:56;15.67;;;0.90;;
572;SDS011;271;51.114;13.780;2024-02-23T09:49:45;17.53;;;1.10;;
572;SDS011;271;51.114;13.780;2024-02-23T09:52:36;13.97;;;0.70;;
572;SDS011;271;51.114;13.780;2024-02-23T09:55:26;15.00;;;1.30;;
572;SDS011;271;51.114;13.780;2024-02-23T09:58:13;14.33;;;1.03;;
572;SDS011;271;51.114;13.780;2024-02-23T10:01:03;14.20;;;0.90;;
572;SDS011;271;51.114;13.780;2024-02-23T10:03:51;14.60;;;0.90;;
572;SDS011;271;51.114;13.780;2024-02-23T10:06:38;17.13;;;1.10;;
572;SDS011;271;51.114;13.780;2024-02-23T10:09:26;14.80;;;0.80;;
572;SDS011;271;51.114;13.780;2024-02-23T10:12:16;15.80;;;1.27;;
572;SDS011;271;51.114;13.780;2024-02-23T10:15:05;14.50;;;1.10;;
572;SDS011;271;51.114;13.780;2024-02-23T10:17:53;14.70;;;1.20;;
572;SDS011;271;51.114;13.780;2024-02-23T10:20:41;14.43;;;0.93;;
572;SDS011;271;51.114;13.780;2024-02-23T10:23:29;14.03;;;1.00;;
572;SDS011;271;51.114;13.780;2024-02-23T10:26:17;15.50;;;1.10;;
572;SDS011;271;51.114;13.780;2024-02-23T10:29:09;15.70;;;1.10;;
572;SDS011;271;51.114;13.780;2024-02-23T10:31:57;15.83;;;1.40;;
572;SDS011;271;51.114;13.780;2024-02-23T10:34:45;16.87;;;0.80;;
572;SDS011;271;51.114;13.780;2024-02-23T10:37:36;13.97;;;0.80;;
572;SDS011;271;51.114;13.780;2024-02-23T10:40:24;15.33;;;0.80;;
572;SDS011;271;51.114;13.780;2024-02-23T10:43:19;14.27;;;0.80;;
572;SDS011;271;51.114;13.780;2024-02-23T10:46:09;14.47;;;0.90;;
572;SDS011;271;51.114;13.780;2024-02-23T10:48:59;13.90;;;0.90;;
572;SDS011;271;51.114;13.780;2024-02-23T10:51:48;17.60;;;1.07;;
572;SDS011;271;51.114;13.780;2024-02-23T10:54:38;15.10;;;1.00;;
572;SDS011;271;51.114;13.780;2024-02-23T10:57:26;16.23;;;2.40;;
572;SDS011;271;51.114;13.780;2024-02-23T11:00:14;16.30;;;1.20;;
572;SDS011;271;51.114;13.780;2024-02-23T11:03:06;14.60;;;0.93;;
572;SDS011;271;51.114;13.780;2024-02-23T11:05:54;14.70;;;0.97;;
572;SDS011;271;51.114;13.780;2024-02-23T11:08:42;14.40;;;1.70;;
572;SDS011;271;51.114;13.780;2024-02-23T11:11:31;14.50;;;0.90;;
572;SDS011;271;51.114;13.780;2024-02-23T11:14:28;14.20;;;0.80;;
572;SDS011;271;51.114;13.780;2024-02-23T11:17:18;15.53;;;1.13;;
572;SDS011;271;51.114;13.780;2024-02-23T11:20:08;14.20;;;1.03;;
572;SDS011;271;51.114;13.780;2024-02-23T11:23:01;14.13;;;1.10;;
572;SDS011;271;51.114;13.780;2024-02-23T11:26:06;13.77;;;0.80;;
572;SDS011;271;51.114;13.780;2024-02-23T11:28:57;14.60;;;0.90;;
572;SDS011;271;51.114;13.780;2024-02-23T11:31:45;14.40;;;0.80;;
572;SDS011;271;51.114;13.780;2024-02-23T11:34:34;13.97;;;0.80;;
572;SDS011;271;51.114;13.780;2024-02-23T11:37:23;14.30;;;0.80;;
572;SDS011;271;51.114;13.780;2024-02-23T11:40:14;16.00;;;0.90;;
572;SDS011;271;51.114;13.780;2024-02-23T11:43:04;13.77;;;0.80;;
572;SDS011;271;51.114;13.780;2024-02-23T11:45:52;14.70;;;0.93;;
572;SDS011;271;51.114;13.780;2024-02-23T11:48:40;13.63;;;0.70;;
572;SDS011;271;51.114;13.780;2024-02-23T11:51:29;14.17;;;0.90;;
572;SDS011;271;51.114;13.780;2024-02-23T11:54:18;14.20;;;0.80;;
572;SDS011;271;51.114;13.780;2024-02-23T11:57:07;14.83;;;1.00;;
572;SDS011;271;51.114;13.780;2024-02-23T11:59:55;15.03;;;1.00;;
572;SDS011;271;51.114;13.780;2024-02-23T12:02:43;14.60;;;1.07;;
572;SDS011;271;51.114;13.780;2024-02-23T12:05:32;14.90;;;0.80;;
572;SDS011;271;51.114;13.780;2024-02-23T12:08:19;16.13;;;0.93;;
572;SDS011;271;51.114;13.780;2024-02-23T12:11:09;15.23;;;1.07;;
572;SDS011;271;51.114;13.780;2024-02-23T12:13:59;14.30;;;0.80;;
572;SDS011;271;51.114;13.780;2024-02-23T12:16:48;14.17;;;1.00;;
572;SDS011;271;51.114;13.780;2024-02-23T12:19:37;15.73;;;1.10;;
572;SDS011;271;51.114;13.780;2024-02-23T12:22:26;14.20;;;0.80;;
572;SDS011;271;51.114;13.780;2024-02-23T12:25:14;14.30;;;0.80;;
572;SDS011;271;51.114;13.780;2024-02-23T12:28:03;14.23;;;0.93;;
572;SDS011;271;51.114;13.780;2024-02-23T12:30:58;15.93;;;1.17;;
572;SDS011;271;51.114;13.780;2024-02-23T12:33:46;15.50;;;1.33;;
572;SDS011;271;51.114;13.780;2024-02-23T12:36:34;13.90;;;0.80;;
572;SDS011;271;51.114;13.780;2024-02-23T12:39:24;14.83;;;1.20;;
572;SDS011;271;51.114;13.780;2024-02-23T12:42:12;14.37;;;1.20;;
572;SDS011;271;51.114;13.780;2024-02-23T12:45:01;14.83;;;1.00;;
572;SDS011;271;51.114;13.780;2024-02-23T12:47:49;15.80;;;1.10;;
572;SDS011;271;51.114;13.780;2024-02-23T12:50:37;14.00;;;0.90;;
572;SDS011;271;51.114;13.780;2024-02-23T12:53:31;14.60;;;1.00;;
572;SDS011;271;51.114;13.780;2024-02-23T12:56:20;14.60;;;0.80;;
572;SDS011;271;51.114;13.780;2024-02-23T12:59:08;14.70;;;0.93;;
572;SDS011;271;51.114;13.780;2024-02-23T13:01:57;14.70;;;0.93;;
572;SDS011;271;51.114;13.780;2024-02-23T13:04:45;14.70;;;0.90;;
572;SDS011;271;51.114;13.780;2024-02-23T13:07:34;14.07;;;0.80;;
572;SDS011;271;51.114;13.780;2024-02-23T13:10:24;14.10;;;0.90;;
572;SDS011;271;51.114;13.780;2024-02-23T13:13:12;14.40;;;0.93;;
572;SDS011;271;51.114;13.780;2024-02-23T13:16:00;14.10;;;0.90;;
572;SDS011;271;51.114;13.780;2024-02-23T13:18:49;13.83;;;0.90;;
572;SDS011;271;51.114;13.780;2024-02-23T13:21:37;15.10;;;1.13;;
572;SDS011;271;51.114;13.780;2024-02-23T13:24:24;14.80;;;1.00;;
572;SDS011;271;51.114;13.780;2024-02-23T13:27:12;14.20;;;0.90;;
572;SDS011;271;51.114;13.780;2024-02-23T13:30:00;14.40;;;0.90;;
572;SDS011;271;51.114;13.780;2024-02-23T13:32:49;14.77;;;0.83;;
572;SDS011;271;51.114;13.780;2024-02-23T13:35:38;14.30;;;0.87;;
572;SDS011;271;51.114;13.780;2024-02-23T13:38:26;14.20;;;1.03;;
572;SDS011;271;51.114;13.780;2024-02-23T13:41:13;13.90;;;0.97;;
572;SDS011;271;51.114;13.780;2024-02-23T13:44:01;13.67;;;0.80;;
572;SDS011;271;51.114;13.780;2024-02-23T13:46:50;13.73;;;0.80;;
572;SDS011;271;51.114;13.780;2024-02-23T13:49:37;17.30;;;1.00;;
572;SDS011;271;51.114;13.780;2024-02-23T13:52:26;15.27;;;1.00;;
572;SDS011;271;51.114;13.780;2024-02-23T13:55:15;14.47;;;0.90;;
572;SDS011;271;51.114;13.780;2024-02-23T13:58:02;13.87;;;0.80;;
572;SDS011;271;51.114;13.780;2024-02-23T14:00:50;14.77;;;0.87;;
572;SDS011;271;51.114;13.780;2024-02-23T14:03:38;14.60;;;0.70;;
572;SDS011;271;51.114;13.780;2024-02-23T14:06:26;14.00;;;0.90;;
572;SDS011;271;51.114;13.780;2024-02-23T14:09:15;13.87;;;1.00;;
572;SDS011;271;51.114;13.780;2024-02-23T14:12:02;14.83;;;0.90;;
572;SDS011;271;51.114;13.780;2024-02-23T14:14:50;14.10;;;1.00;;
572;SDS011;271;51.114;13.780;2024-02-23T14:17:38;16.23;;;1.27;;
572;SDS011;271;51.114;13.780;2024-02-23T14:20:26;14.20;;;1.10;;
572;SDS011;271;51.114;13.780;2024-02-23T14:23:17;15.60;;;1.20;;
572;SDS011;271;51.114;13.780;2024-02-23T14:26:06;15.00;;;1.30;;
572;SDS011;271;51.114;13.780;2024-02-23T14:28:57;14.73;;;0.80;;
572;SDS011;271;51.114;13.780;2024-02-23T14:31:44;14.00;;;0.90;;
572;SDS011;271;51.114;13.780;2024-02-23T14:34:32;14.13;;;1.00;;
572;SDS011;271;51.114;13.780;2024-02-23T14:37:20;15.20;;;1.40;;
572;SDS011;271;51.114;13.780;2024-02-23T14:40:11;14.17;;;1.10;;
572;SDS011;271;51.114;13.780;2024-02-23T14:43:01;14.23;;;1.13;;
572;SDS011;271;51.114;13.780;2024-02-23T14:45:49;14.17;;;1.00;;
572;SDS011;271;51.114;13.780;2024-02-23T14:48:38;14.70;;;1.00;;
572;SDS011;271;51.114;13.780;2024-02-23T14:51:26;15.97;;;1.50;;
572;SDS011;271;51.114;13.780;2024-02-23T14:54:13;14.30;;;1.23;;
572;SDS011;271;51.114;13.780;2024-02-23T14:57:05;15.23;;;1.50;;
572;SDS011;271;51.114;13.780;2024-02-23T14:59:55;14.73;;;1.00;;
572;SDS011;271;51.114;13.780;2024-02-23T15:02:42;14.73;;;0.90;;
572;SDS011;271;51.114;13.780;2024-02-23T15:05:30;15.23;;;1.10;;
572;SDS011;271;51.114;13.780;2024-02-23T15:08:21;16.03;;;1.40;;
572;SDS011;271;51.114;13.780;2024-02-23T15:11:08;14.47;;;1.10;;
572;SDS011;271;51.114;13.780;2024-02-23T15:13:59;14.17;;;1.00;;
572;SDS011;271;51.114;13.780;2024-02-23T15:16:48;14.30;;;1.07;;
572;SDS011;271;51.114;13.780;2024-02-23T15:19:36;14.70;;;0.90;;
572;SDS011;271;51.114;13.780;2024-02-23T15:22:23;17.43;;;1.30;;
572;SDS011;271;51.114;13.780;2024-02-23T15:25:14;19.93;;;1.40;;
572;SDS011;271;51.114;13.780;2024-02-23T15:28:02;14.50;;;1.33;;
572;SDS011;271;51.114;13.780;2024-02-23T15:30:53;14.20;;;0.90;;
572;SDS011;271;51.114;13.780;2024-02-23T15:33:42;16.20;;;1.40;;
572;SDS011;271;51.114;13.780;2024-02-23T15:36:31;14.40;;;1.43;;
572;SDS011;271;51.114;13.780;2024-02-23T15:39:19;15.10;;;1.10;;
572;SDS011;271;51.114;13.780;2024-02-23T15:42:09;14.30;;;1.40;;
572;SDS011;271;51.114;13.780;2024-02-23T15:44:59;14.80;;;1.10;;
572;SDS011;271;51.114;13.780;2024-02-23T15:47:46;16.07;;;1.30;;
572;SDS011;271;51.114;13.780;2024-02-23T15:50:36;15.00;;;1.50;;
572;SDS011;271;51.114;13.780;2024-02-23T15:53:23;17.33;;;1.70;;
572;SDS011;271;51.114;13.780;2024-02-23T15:56:11;17.90;;;1.40;;
572;SDS011;271;51.114;13.780;2024-02-23T15:59:02;14.70;;;1.40;;
572;SDS011;271;51.114;13.780;2024-02-23T16:01:54;15.90;;;1.13;;
572;SDS011;271;51.114;13.780;2024-02-23T16:04:42;15.27;;;1.10;;
572;SDS011;271;51.114;13.780;2024-02-23T16:07:31;16.17;;;1.13;;
572;SDS011;271;51.114;13.780;2024-02-23T16:10:19;14.70;;;1.40;;
572;SDS011;271;51.114;13.780;2024-02-23T16:13:07;14.67;;;1.00;;
572;SDS011;271;51.114;13.780;2024-02-23T16:15:55;18.40;;;1.60;;
572;SDS011;271;51.114;13.780;2024-02-23T16:18:43;17.53;;;1.40;;
572;SDS011;271;51.114;13.780;2024-02-23T16:21:31;16.10;;;1.47;;
572;SDS011;271;51.114;13.780;2024-02-23T16:24:22;15.50;;;2.10;;
572;SDS011;271;51.114;13.780;2024-02-23T16:27:09;17.57;;;1.47;;
572;SDS011;271;51.114;13.780;2024-02-23T16:29:57;14.97;;;1.27;;
572;SDS011;271;51.114;13.780;2024-02-23T16:32:45;14.20;;;1.20;;
572;SDS011;271;51.114;13.780;2024-02-23T16:35:35;16.20;;;1.70;;
572;SDS011;271;51.114;13.780;2024-02-23T16:38:23;14.43;;;1.40;;
572;SDS011;271;51.114;13.780;2024-02-23T16:41:12;14.90;;;1.47;;
572;SDS011;271;51.114;13.780;2024-02-23T16:44:00;14.77;;;1.60;;
572;SDS011;271;51.114;13.780;2024-02-23T16:46:48;15.33;;;1.60;;
572;SDS011;271;51.114;13.780;2024-02-23T16:49:35;15.40;;;1.70;;
572;SDS011;271;51.114;13.780;2024-02-23T16:52:23;15.40;;;1.93;;
572;SDS011;271;51.114;13.780;2024-02-23T16:55:11;15.33;;;1.87;;
572;SDS011;271;51.114;13.780;2024-02-23T16:58:00;14.47;;;1.70;;
572;SDS011;271;51.114;13.780;2024-02-23T17:00:48;14.80;;;1.57;;
572;SDS011;271;51.114;13.780;2024-02-23T17:03:37;15.93;;;1.83;;
572;SDS011;271;51.114;13.780;2024-02-23T17:06:25;17.63;;;2.27;;
572;SDS011;271;51.114;13.780;2024-02-23T17:09:13;15.83;;;2.43;;
572;SDS011;271;51.114;13.780;2024-02-23T17:12:01;15.80;;;1.70;;
572;SDS011;271;51.114;13.780;2024-02-23T17:14:50;16.67;;;2.20;;
572;SDS011;271;51.114;13.780;2024-02-23T17:17:37;14.70;;;1.70;;
572;SDS011;271;51.114;13.780;2024-02-23T17:20:25;15.50;;;1.50;;
572;SDS011;271;51.114;13.780;2024-02-23T17:23:13;16.43;;;2.50;;
572;SDS011;271;51.114;13.780;2024-02-23T17:26:01;15.50;;;1.90;;